sensor_id;sensor_type;location;lat;lon;timestamp;pressure;altitude;pressure_sealevel;temperature;humidity
21547;BME280;41275;51.912;4.388;2022-10-16T00:03:43;100871.72;;;21.50;44.45
21547;BME280;41275;51.912;4.388;2022-10-16T00:09:06;100857.44;;;21.49;44.46
21547;BME280;41275;51.912;4.388;2022-10-16T00:14:27;100874.59;;;21.53;44.65
21547;BME280;41275;51.912;4.388;2022-10-16T00:19:48;100862.34;;;21.47;44.81
21547;BME280;41275;51.912;4.388;2022-10-16T00:25:10;100868.31;;;21.44;45.27
21547;BME280;41275;51.912;4.388;2022-10-16T00:30:31;100866.19;;;21.41;45.76
21547;BME280;41275;51.912;4.388;2022-10-16T00:35:52;100860.53;;;21.43;46.03
21547;BME280;41275;51.912;4.388;2022-10-16T00:41:16;100848.97;;;21.42;46.16
21547;BME280;41275;51.912;4.388;2022-10-16T00:46:39;100860.47;;;21.29;46.37
21547;BME280;41275;51.912;4.388;2022-10-16T00:52:02;100847.28;;;21.14;47.16
21547;BME280;41275;51.912;4.388;2022-10-16T00:57:23;100851.75;;;20.91;47.94
21547;BME280;41275;51.912;4.388;2022-10-16T01:02:55;100864.13;;;20.73;48.69
21547;BME280;41275;51.912;4.388;2022-10-16T01:08:49;100869.66;;;20.63;49.30
21547;BME280;41275;51.912;4.388;2022-10-16T01:14:21;100869.66;;;20.63;49.72
21547;BME280;41275;51.912;4.388;2022-10-16T01:25:39;100864.13;;;20.35;50.21
21547;BME280;41275;51.912;4.388;2022-10-16T01:31:04;100872.13;;;20.21;50.63
21547;BME280;41275;51.912;4.388;2022-10-16T01:36:30;100879.00;;;20.08;51.06
21547;BME280;41275;51.912;4.388;2022-10-16T01:42:02;100880.38;;;20.06;51.22
21547;BME280;41275;51.912;4.388;2022-10-16T01:47:25;100868.44;;;20.12;51.19
21547;BME280;41275;51.912;4.388;2022-10-16T01:52:50;100868.69;;;20.16;51.08
21547;BME280;41275;51.912;4.388;2022-10-16T01:58:13;100878.84;;;20.19;51.36
21547;BME280;41275;51.912;4.388;2022-10-16T02:03:37;100872.38;;;20.20;51.05
21547;BME280;41275;51.912;4.388;2022-10-16T02:09:01;100883.66;;;20.22;51.00
21547;BME280;41275;51.912;4.388;2022-10-16T02:14:23;100890.06;;;20.26;50.87
21547;BME280;41275;51.912;4.388;2022-10-16T02:19:47;100881.41;;;20.29;50.99
21547;BME280;41275;51.912;4.388;2022-10-16T02:25:31;100884.59;;;20.31;51.14
21547;BME280;41275;51.912;4.388;2022-10-16T02:31:01;100894.06;;;20.28;51.26
21547;BME280;41275;51.912;4.388;2022-10-16T02:36:25;100891.06;;;20.30;51.17
21547;BME280;41275;51.912;4.388;2022-10-16T02:41:47;100885.78;;;20.25;51.15
21547;BME280;41275;51.912;4.388;2022-10-16T02:47:09;100901.75;;;20.16;51.50
21547;BME280;41275;51.912;4.388;2022-10-16T02:52:30;100885.53;;;20.02;51.61
21547;BME280;41275;51.912;4.388;2022-10-16T02:57:51;100885.84;;;19.96;51.99
21547;BME280;41275;51.912;4.388;2022-10-16T03:03:13;100885.06;;;19.95;52.22
21547;BME280;41275;51.912;4.388;2022-10-16T03:08:34;100898.00;;;20.12;52.10
21547;BME280;41275;51.912;4.388;2022-10-16T03:13:55;100911.03;;;20.24;51.76
21547;BME280;41275;51.912;4.388;2022-10-16T03:19:17;100913.53;;;20.20;51.72
21547;BME280;41275;51.912;4.388;2022-10-16T03:24:38;100919.31;;;20.08;51.86
21547;BME280;41275;51.912;4.388;2022-10-16T03:29:59;100927.41;;;20.03;51.94
21547;BME280;41275;51.912;4.388;2022-10-16T03:35:21;100930.06;;;20.08;51.87
21547;BME280;41275;51.912;4.388;2022-10-16T03:40:42;100917.19;;;20.05;51.95
21547;BME280;41275;51.912;4.388;2022-10-16T03:46:04;100928.00;;;20.00;52.08
21547;BME280;41275;51.912;4.388;2022-10-16T03:51:25;100942.22;;;20.01;52.17
21547;BME280;41275;51.912;4.388;2022-10-16T03:56:46;100945.19;;;19.99;52.19
21547;BME280;41275;51.912;4.388;2022-10-16T04:02:08;100941.19;;;19.97;52.38
21547;BME280;41275;51.912;4.388;2022-10-16T04:07:29;100950.84;;;19.98;52.55
21547;BME280;41275;51.912;4.388;2022-10-16T04:12:50;100944.63;;;20.02;52.59
21547;BME280;41275;51.912;4.388;2022-10-16T04:18:12;100964.44;;;20.06;52.59
21547;BME280;41275;51.912;4.388;2022-10-16T04:23:33;100983.03;;;20.03;52.70
21547;BME280;41275;51.912;4.388;2022-10-16T04:28:54;100989.94;;;20.09;52.82
21547;BME280;41275;51.912;4.388;2022-10-16T04:34:15;100985.84;;;20.17;52.72
21547;BME280;41275;51.912;4.388;2022-10-16T04:39:36;100992.47;;;20.24;52.39
21547;BME280;41275;51.912;4.388;2022-10-16T04:44:58;101017.16;;;20.26;52.43
21547;BME280;41275;51.912;4.388;2022-10-16T04:50:19;101022.53;;;20.26;52.51
21547;BME280;41275;51.912;4.388;2022-10-16T04:55:42;101025.75;;;20.28;52.50
21547;BME280;41275;51.912;4.388;2022-10-16T05:01:03;101026.53;;;20.29;52.17
21547;BME280;41275;51.912;4.388;2022-10-16T05:06:24;101023.78;;;20.34;52.44
21547;BME280;41275;51.912;4.388;2022-10-16T05:11:46;101048.44;;;20.41;52.22
21547;BME280;41275;51.912;4.388;2022-10-16T05:17:07;101044.78;;;20.32;52.25
21547;BME280;41275;51.912;4.388;2022-10-16T05:22:28;101056.59;;;20.31;52.40
21547;BME280;41275;51.912;4.388;2022-10-16T05:27:49;101062.78;;;20.31;52.54
21547;BME280;41275;51.912;4.388;2022-10-16T05:33:11;101063.81;;;20.35;52.67
21547;BME280;41275;51.912;4.388;2022-10-16T05:38:32;101070.22;;;20.40;52.58
21547;BME280;41275;51.912;4.388;2022-10-16T05:43:53;101083.94;;;20.38;52.41
21547;BME280;41275;51.912;4.388;2022-10-16T05:49:15;101084.75;;;20.39;52.25
21547;BME280;41275;51.912;4.388;2022-10-16T05:54:37;101090.13;;;20.39;52.26
21547;BME280;41275;51.912;4.388;2022-10-16T05:59:58;101095.22;;;20.40;52.33
21547;BME280;41275;51.912;4.388;2022-10-16T06:05:19;101104.34;;;20.39;52.14
21547;BME280;41275;51.912;4.388;2022-10-16T06:10:41;101100.41;;;20.31;51.46
21547;BME280;41275;51.912;4.388;2022-10-16T06:16:03;101113.34;;;20.29;50.75
21547;BME280;41275;51.912;4.388;2022-10-16T06:21:26;101116.81;;;20.30;50.19
21547;BME280;41275;51.912;4.388;2022-10-16T06:26:47;101115.47;;;20.32;50.36
21547;BME280;41275;51.912;4.388;2022-10-16T06:32:09;101118.41;;;20.31;50.65
21547;BME280;41275;51.912;4.388;2022-10-16T06:37:30;101145.88;;;20.28;51.41
21547;BME280;41275;51.912;4.388;2022-10-16T06:42:54;101145.34;;;20.26;51.93
21547;BME280;41275;51.912;4.388;2022-10-16T06:48:15;101158.31;;;20.19;51.94
21547;BME280;41275;51.912;4.388;2022-10-16T06:53:40;101164.00;;;20.12;52.07
21547;BME280;41275;51.912;4.388;2022-10-16T06:59:02;101163.06;;;19.98;52.53
21547;BME280;41275;51.912;4.388;2022-10-16T07:04:23;101185.16;;;19.90;52.83
21547;BME280;41275;51.912;4.388;2022-10-16T07:09:44;101187.84;;;19.84;52.97
21547;BME280;41275;51.912;4.388;2022-10-16T07:15:06;101203.63;;;19.96;53.20
21547;BME280;41275;51.912;4.388;2022-10-16T07:20:27;101210.56;;;20.02;52.96
21547;BME280;41275;51.912;4.388;2022-10-16T07:25:53;101219.38;;;20.08;53.22
21547;BME280;41275;51.912;4.388;2022-10-16T07:31:16;101234.69;;;20.13;53.09
21547;BME280;41275;51.912;4.388;2022-10-16T07:36:37;101255.34;;;20.17;52.99
21547;BME280;41275;51.912;4.388;2022-10-16T07:41:58;101256.06;;;20.28;52.87
21547;BME280;41275;51.912;4.388;2022-10-16T07:47:20;101258.41;;;20.34;52.61
21547;BME280;41275;51.912;4.388;2022-10-16T07:52:41;101266.13;;;20.46;52.30
21547;BME280;41275;51.912;4.388;2022-10-16T07:58:02;101281.13;;;20.57;52.22
21547;BME280;41275;51.912;4.388;2022-10-16T08:03:24;101296.81;;;20.74;51.83
21547;BME280;41275;51.912;4.388;2022-10-16T08:08:46;101304.25;;;20.88;51.64
21547;BME280;41275;51.912;4.388;2022-10-16T08:14:08;101308.69;;;21.26;51.17
21547;BME280;41275;51.912;4.388;2022-10-16T08:19:29;101314.03;;;21.31;50.63
21547;BME280;41275;51.912;4.388;2022-10-16T08:24:52;101325.69;;;21.51;50.51
21547;BME280;41275;51.912;4.388;2022-10-16T08:30:13;101328.72;;;21.44;50.49
21547;BME280;41275;51.912;4.388;2022-10-16T08:35:34;101346.69;;;21.49;50.35
21547;BME280;41275;51.912;4.388;2022-10-16T08:41:08;101361.41;;;21.56;50.09
21547;BME280;41275;51.912;4.388;2022-10-16T08:52:01;101362.81;;;21.54;50.03
21547;BME280;41275;51.912;4.388;2022-10-16T08:57:24;101377.94;;;21.74;49.96
21547;BME280;41275;51.912;4.388;2022-10-16T09:13:50;101378.78;;;22.12;49.10
21547;BME280;41275;51.912;4.388;2022-10-16T09:24:44;101385.88;;;22.46;48.47
21547;BME280;41275;51.912;4.388;2022-10-16T09:30:17;101403.66;;;22.47;48.44
21547;BME280;41275;51.912;4.388;2022-10-16T09:35:42;101411.38;;;22.72;47.83
21547;BME280;41275;51.912;4.388;2022-10-16T09:41:24;101409.53;;;22.87;47.34
21547;BME280;41275;51.912;4.388;2022-10-16T09:46:46;101416.41;;;22.98;46.98
21547;BME280;41275;51.912;4.388;2022-10-16T09:52:14;101415.00;;;23.00;47.10
21547;BME280;41275;51.912;4.388;2022-10-16T09:57:36;101419.06;;;23.17;46.80
21547;BME280;41275;51.912;4.388;2022-10-16T10:02:57;101422.44;;;23.22;46.13
21547;BME280;41275;51.912;4.388;2022-10-16T10:08:18;101420.09;;;23.02;45.23
21547;BME280;41275;51.912;4.388;2022-10-16T10:13:39;101424.56;;;22.74;45.54
21547;BME280;41275;51.912;4.388;2022-10-16T10:19:00;101446.50;;;22.67;45.43
21547;BME280;41275;51.912;4.388;2022-10-16T10:24:22;101430.28;;;22.72;44.72
21547;BME280;41275;51.912;4.388;2022-10-16T10:35:45;101457.84;;;23.21;45.33
21547;BME280;41275;51.912;4.388;2022-10-16T10:46:52;101450.09;;;23.66;42.88
21547;BME280;41275;51.912;4.388;2022-10-16T11:09:15;101491.31;;;23.99;38.96
21547;BME280;41275;51.912;4.388;2022-10-16T11:14:43;101483.41;;;24.03;38.59
21547;BME280;41275;51.912;4.388;2022-10-16T11:20:13;101494.44;;;24.06;36.78
21547;BME280;41275;51.912;4.388;2022-10-16T11:25:39;101508.13;;;24.23;37.85
21547;BME280;41275;51.912;4.388;2022-10-16T11:36:44;101504.84;;;24.40;37.93
21547;BME280;41275;51.912;4.388;2022-10-16T11:47:40;101511.50;;;24.70;36.65
21547;BME280;41275;51.912;4.388;2022-10-16T11:58:32;101509.59;;;24.71;34.33
21547;BME280;41275;51.912;4.388;2022-10-16T12:04:06;101525.56;;;24.95;35.30
21547;BME280;41275;51.912;4.388;2022-10-16T12:09:37;101523.22;;;26.09;34.77
21547;BME280;41275;51.912;4.388;2022-10-16T12:15:26;101524.66;;;26.64;33.32
21547;BME280;41275;51.912;4.388;2022-10-16T12:20:55;101525.59;;;27.37;32.46
21547;BME280;41275;51.912;4.388;2022-10-16T12:26:30;101532.72;;;27.77;31.04
21547;BME280;41275;51.912;4.388;2022-10-16T12:31:52;101536.97;;;27.05;31.97
21547;BME280;41275;51.912;4.388;2022-10-16T12:37:33;101534.44;;;27.17;30.93
21547;BME280;41275;51.912;4.388;2022-10-16T12:42:55;101535.47;;;27.51;30.58
21547;BME280;41275;51.912;4.388;2022-10-16T12:48:21;101535.16;;;27.61;30.58
21547;BME280;41275;51.912;4.388;2022-10-16T12:53:42;101547.91;;;27.86;30.62
21547;BME280;41275;51.912;4.388;2022-10-16T12:59:43;101551.41;;;27.78;30.38
21547;BME280;41275;51.912;4.388;2022-10-16T13:11:00;101558.41;;;27.15;30.86
21547;BME280;41275;51.912;4.388;2022-10-16T13:22:24;101560.66;;;26.30;33.41
21547;BME280;41275;51.912;4.388;2022-10-16T13:27:56;101563.59;;;26.02;34.36
21547;BME280;41275;51.912;4.388;2022-10-16T13:33:27;101552.34;;;25.86;35.42
21547;BME280;41275;51.912;4.388;2022-10-16T13:39:10;101563.53;;;25.93;35.76
21547;BME280;41275;51.912;4.388;2022-10-16T13:44:40;101561.72;;;26.20;35.21
21547;BME280;41275;51.912;4.388;2022-10-16T13:50:06;101570.00;;;26.63;34.20
21547;BME280;41275;51.912;4.388;2022-10-16T13:55:30;101551.16;;;26.58;33.88
21547;BME280;41275;51.912;4.388;2022-10-16T14:01:06;101569.38;;;26.66;34.29
21547;BME280;41275;51.912;4.388;2022-10-16T14:06:40;101562.69;;;26.81;34.09
21547;BME280;41275;51.912;4.388;2022-10-16T14:12:07;101558.06;;;26.90;33.80
21547;BME280;41275;51.912;4.388;2022-10-16T14:17:31;101552.28;;;26.66;34.33
21547;BME280;41275;51.912;4.388;2022-10-16T14:23:16;101552.84;;;26.37;34.41
21547;BME280;41275;51.912;4.388;2022-10-16T14:28:41;101558.25;;;26.37;34.22
21547;BME280;41275;51.912;4.388;2022-10-16T14:34:03;101553.31;;;26.30;34.21
21547;BME280;41275;51.912;4.388;2022-10-16T14:39:25;101536.41;;;26.33;34.16
21547;BME280;41275;51.912;4.388;2022-10-16T14:44:47;101547.25;;;26.33;34.43
21547;BME280;41275;51.912;4.388;2022-10-16T14:50:08;101551.66;;;26.20;34.29
21547;BME280;41275;51.912;4.388;2022-10-16T14:55:30;101547.94;;;25.99;34.52
21547;BME280;41275;51.912;4.388;2022-10-16T15:00:51;101550.19;;;25.75;35.21
21547;BME280;41275;51.912;4.388;2022-10-16T15:06:16;101554.16;;;25.46;35.81
21547;BME280;41275;51.912;4.388;2022-10-16T15:11:37;101533.13;;;25.43;36.23
21547;BME280;41275;51.912;4.388;2022-10-16T15:16:59;101535.41;;;25.27;36.50
21547;BME280;41275;51.912;4.388;2022-10-16T15:22:20;101543.56;;;25.13;37.10
21547;BME280;41275;51.912;4.388;2022-10-16T15:27:44;101537.81;;;24.92;37.46
21547;BME280;41275;51.912;4.388;2022-10-16T15:33:12;101548.66;;;24.79;37.92
21547;BME280;41275;51.912;4.388;2022-10-16T15:38:34;101549.91;;;24.72;38.37
21547;BME280;41275;51.912;4.388;2022-10-16T15:43:56;101548.72;;;24.65;38.73
21547;BME280;41275;51.912;4.388;2022-10-16T15:49:17;101533.06;;;24.48;39.00
21547;BME280;41275;51.912;4.388;2022-10-16T15:54:38;101534.47;;;24.32;39.49
21547;BME280;41275;51.912;4.388;2022-10-16T16:00:00;101534.38;;;24.23;39.65
21547;BME280;41275;51.912;4.388;2022-10-16T16:05:22;101519.66;;;24.15;40.10
21547;BME280;41275;51.912;4.388;2022-10-16T16:10:43;101532.88;;;24.17;40.18
21547;BME280;41275;51.912;4.388;2022-10-16T16:16:09;101532.50;;;24.10;40.47
21547;BME280;41275;51.912;4.388;2022-10-16T16:21:30;101543.81;;;23.98;40.88
21547;BME280;41275;51.912;4.388;2022-10-16T16:26:51;101559.41;;;23.87;41.40
21547;BME280;41275;51.912;4.388;2022-10-16T16:32:13;101563.78;;;23.83;41.64
21547;BME280;41275;51.912;4.388;2022-10-16T16:37:34;101568.09;;;23.70;42.06
21547;BME280;41275;51.912;4.388;2022-10-16T16:42:55;101555.00;;;23.59;42.38
21547;BME280;41275;51.912;4.388;2022-10-16T16:48:17;101542.41;;;23.54;42.44
21547;BME280;41275;51.912;4.388;2022-10-16T16:53:38;101542.97;;;23.51;42.69
21547;BME280;41275;51.912;4.388;2022-10-16T16:58:59;101548.38;;;23.51;42.65
21547;BME280;41275;51.912;4.388;2022-10-16T17:04:20;101557.50;;;23.55;42.68
21547;BME280;41275;51.912;4.388;2022-10-16T17:09:41;101568.59;;;23.53;42.99
21547;BME280;41275;51.912;4.388;2022-10-16T17:15:03;101579.91;;;23.56;42.60
21547;BME280;41275;51.912;4.388;2022-10-16T17:20:25;101580.00;;;23.50;42.47
21547;BME280;41275;51.912;4.388;2022-10-16T17:25:46;101588.97;;;23.46;42.71
21547;BME280;41275;51.912;4.388;2022-10-16T17:31:20;101581.75;;;23.41;42.88
21547;BME280;41275;51.912;4.388;2022-10-16T17:36:41;101586.34;;;23.41;43.05
21547;BME280;41275;51.912;4.388;2022-10-16T17:42:03;101584.66;;;23.45;43.17
21547;BME280;41275;51.912;4.388;2022-10-16T17:47:25;101589.28;;;23.44;42.90
21547;BME280;41275;51.912;4.388;2022-10-16T17:52:47;101592.84;;;23.40;43.16
21547;BME280;41275;51.912;4.388;2022-10-16T17:58:08;101605.63;;;23.34;43.18
21547;BME280;41275;51.912;4.388;2022-10-16T18:03:29;101619.50;;;23.27;43.70
21547;BME280;41275;51.912;4.388;2022-10-16T18:08:51;101623.59;;;23.25;43.71
21547;BME280;41275;51.912;4.388;2022-10-16T18:14:14;101629.88;;;23.20;44.31
21547;BME280;41275;51.912;4.388;2022-10-16T18:19:35;101631.25;;;23.18;44.74
21547;BME280;41275;51.912;4.388;2022-10-16T18:24:57;101623.59;;;23.25;45.20
21547;BME280;41275;51.912;4.388;2022-10-16T18:30:18;101635.41;;;23.29;45.63
21547;BME280;41275;51.912;4.388;2022-10-16T18:35:39;101634.69;;;23.23;45.90
21547;BME280;41275;51.912;4.388;2022-10-16T18:41:01;101632.94;;;23.14;46.04
21547;BME280;41275;51.912;4.388;2022-10-16T18:46:25;101636.00;;;23.07;46.36
21547;BME280;41275;51.912;4.388;2022-10-16T18:51:46;101625.81;;;22.99;47.02
21547;BME280;41275;51.912;4.388;2022-10-16T18:57:08;101635.81;;;22.98;47.31
21547;BME280;41275;51.912;4.388;2022-10-16T19:02:29;101628.94;;;22.87;47.66
21547;BME280;41275;51.912;4.388;2022-10-16T19:07:50;101640.16;;;22.75;48.08
21547;BME280;41275;51.912;4.388;2022-10-16T19:13:12;101624.16;;;22.60;48.46
21547;BME280;41275;51.912;4.388;2022-10-16T19:18:33;101625.59;;;22.52;49.05
21547;BME280;41275;51.912;4.388;2022-10-16T19:24:00;101635.38;;;22.43;49.63
21547;BME280;41275;51.912;4.388;2022-10-16T19:29:21;101616.56;;;22.38;49.98
21547;BME280;41275;51.912;4.388;2022-10-16T19:34:42;101589.03;;;22.41;50.14
21547;BME280;41275;51.912;4.388;2022-10-16T19:40:06;101582.31;;;22.39;50.46
21547;BME280;41275;51.912;4.388;2022-10-16T19:45:27;101585.63;;;22.30;50.41
21547;BME280;41275;51.912;4.388;2022-10-16T19:50:48;101586.81;;;22.19;50.74
21547;BME280;41275;51.912;4.388;2022-10-16T19:56:13;101577.19;;;22.13;51.09
21547;BME280;41275;51.912;4.388;2022-10-16T20:01:35;101582.59;;;22.08;51.41
21547;BME280;41275;51.912;4.388;2022-10-16T20:06:56;101584.56;;;22.02;51.51
21547;BME280;41275;51.912;4.388;2022-10-16T20:12:17;101596.44;;;22.01;51.57
21547;BME280;41275;51.912;4.388;2022-10-16T20:17:39;101597.22;;;22.02;51.72
21547;BME280;41275;51.912;4.388;2022-10-16T20:23:01;101599.88;;;22.07;51.75
21547;BME280;41275;51.912;4.388;2022-10-16T20:28:22;101587.19;;;22.08;51.53
21547;BME280;41275;51.912;4.388;2022-10-16T20:33:44;101581.28;;;22.05;51.83
21547;BME280;41275;51.912;4.388;2022-10-16T20:39:06;101582.88;;;22.06;51.93
21547;BME280;41275;51.912;4.388;2022-10-16T20:44:27;101572.09;;;22.06;51.89
21547;BME280;41275;51.912;4.388;2022-10-16T20:49:48;101571.00;;;22.08;51.99
21547;BME280;41275;51.912;4.388;2022-10-16T20:55:09;101556.78;;;22.02;52.18
21547;BME280;41275;51.912;4.388;2022-10-16T21:00:31;101553.06;;;21.98;51.80
21547;BME280;41275;51.912;4.388;2022-10-16T21:05:52;101563.63;;;21.94;52.32
21547;BME280;41275;51.912;4.388;2022-10-16T21:11:22;101566.31;;;21.94;52.40
21547;BME280;41275;51.912;4.388;2022-10-16T21:16:43;101560.75;;;21.86;52.87
21547;BME280;41275;51.912;4.388;2022-10-16T21:22:04;101547.81;;;21.83;53.03
21547;BME280;41275;51.912;4.388;2022-10-16T21:27:25;101549.59;;;21.92;53.06
21547;BME280;41275;51.912;4.388;2022-10-16T21:32:47;101544.28;;;21.87;52.93
21547;BME280;41275;51.912;4.388;2022-10-16T21:38:08;101532.94;;;21.90;52.98
21547;BME280;41275;51.912;4.388;2022-10-16T21:43:29;101535.09;;;21.88;53.38
21547;BME280;41275;51.912;4.388;2022-10-16T21:48:55;101542.63;;;21.91;53.37
21547;BME280;41275;51.912;4.388;2022-10-16T21:54:19;101550.59;;;22.01;53.25
21547;BME280;41275;51.912;4.388;2022-10-16T21:59:40;101551.41;;;22.02;53.23
21547;BME280;41275;51.912;4.388;2022-10-16T22:05:02;101547.00;;;22.11;53.11
21547;BME280;41275;51.912;4.388;2022-10-16T22:10:23;101535.66;;;22.14;52.98
21547;BME280;41275;51.912;4.388;2022-10-16T22:15:48;101520.59;;;22.13;52.88
21547;BME280;41275;51.912;4.388;2022-10-16T22:21:11;101513.91;;;22.05;53.06
21547;BME280;41275;51.912;4.388;2022-10-16T22:26:33;101515.38;;;21.93;53.16
21547;BME280;41275;51.912;4.388;2022-10-16T22:31:55;101527.31;;;21.87;53.29
21547;BME280;41275;51.912;4.388;2022-10-16T22:37:16;101542.63;;;21.91;53.52
21547;BME280;41275;51.912;4.388;2022-10-16T22:42:37;101539.06;;;21.96;53.50
21547;BME280;41275;51.912;4.388;2022-10-16T22:47:59;101533.63;;;22.01;53.52
21547;BME280;41275;51.912;4.388;2022-10-16T22:53:20;101540.06;;;22.05;53.70
21547;BME280;41275;51.912;4.388;2022-10-16T22:58:42;101535.47;;;22.05;53.60
21547;BME280;41275;51.912;4.388;2022-10-16T23:04:03;101528.25;;;22.01;53.63
21547;BME280;41275;51.912;4.388;2022-10-16T23:09:25;101517.38;;;21.82;53.79
21547;BME280;41275;51.912;4.388;2022-10-16T23:14:46;101512.94;;;21.67;54.00
21547;BME280;41275;51.912;4.388;2022-10-16T23:20:08;101524.84;;;21.61;54.53
21547;BME280;41275;51.912;4.388;2022-10-16T23:25:29;101515.22;;;21.55;54.55
21547;BME280;41275;51.912;4.388;2022-10-16T23:30:51;101508.97;;;21.60;54.72
21547;BME280;41275;51.912;4.388;2022-10-16T23:36:15;101518.88;;;21.69;54.71
21547;BME280;41275;51.912;4.388;2022-10-16T23:41:36;101495.38;;;21.75;54.66
21547;BME280;41275;51.912;4.388;2022-10-16T23:46:57;101496.16;;;21.75;54.82
21547;BME280;41275;51.912;4.388;2022-10-16T23:52:18;101494.84;;;21.73;54.75
21547;BME280;41275;51.912;4.388;2022-10-16T23:57:39;101494.28;;;21.76;54.82
